This is the latest recevied weather packets stored in our database for station/object KR4CWL-13. If no packets are shown the sender has not sent any weather packets the latest 10 day(s).
| Time | Temp. | Humidity | Pressure | Rain* | Wind** | Luminosity | Snow |
|---|---|---|---|---|---|---|---|
| 1777769639 | 9.44° C | 90% | 1006.1 hPa | 0 mm | - | - | - |
| 1777769039 | 10° C | 89% | 1005.8 hPa | 0 mm | - | - | - |
| 1777768439 | 10° C | 88% | 1005.4 hPa | 0 mm | - | - | - |
| 1777767839 | 10.56° C | 86% | 1005.4 hPa | 0 mm | - | - | - |
| 1777767239 | 11.11° C | 87% | 1005.4 hPa | 0 mm | - | - | - |
| 1777766639 | 11.67° C | 83% | 1005.4 hPa | 0 mm | - | - | - |
| 1777766039 | 11.67° C | 80% | 1005.1 hPa | 0 mm | - | - | - |
| 1777765439 | 12.22° C | 77% | 1005.1 hPa | 0 mm | - | - | - |
| 1777764839 | 12.78° C | 73% | 1004.7 hPa | 0 mm | - | - | - |
| 1777764239 | 13.33° C | 69% | 1004.7 hPa | 0 mm | - | - | - |
| 1777763639 | 13.33° C | 71% | 1004.7 hPa | 0 mm | - | - | - |
| 1777763039 | 13.89° C | 68% | 1004.4 hPa | 0 mm | - | - | - |
| 1777762439 | 13.89° C | 69% | 1004.4 hPa | 0 mm | - | - | - |
| 1777761839 | 13.89° C | 66% | 1004.4 hPa | 0 mm | - | - | - |
| 1777761239 | 13.89° C | 66% | 1004.4 hPa | 0 mm | - | - | - |
| 1777760639 | 13.89° C | 64% | 1004.4 hPa | 0 mm | - | - | - |
| 1777760039 | 13.89° C | 63% | 1004.4 hPa | 0 mm | - | - | - |
| 1777759439 | 13.33° C | 68% | 1004.1 hPa | 0 mm | - | - | - |
| 1777758839 | 13.89° C | 64% | 1004.1 hPa | 0 mm | - | - | - |
| 1777758239 | 13.89° C | 64% | 1004.1 hPa | 0 mm | - | - | - |
| 1777757639 | 13.33° C | 63% | 1004.1 hPa | 0 mm | - | - | - |
| 1777757039 | 13.33° C | 65% | 1004.1 hPa | 0 mm | - | - | - |
| 1777756438 | 13.33° C | 65% | 1004.1 hPa | 0 mm | - | - | - |
| 1777755839 | 13.33° C | 68% | 1004.1 hPa | 0 mm | - | - | - |
| 1777755238 | 13.33° C | 65% | 1004.4 hPa | 0 mm | - | - | - |
* Rain since midnight (hover to see other rain measurements)
** Current wind speed in m/s (hover to see current wind gust speed)